createdAt,value
2022-08-12T00:00:53.906Z,2.00
2022-08-12T00:03:39.529Z,2.33
2022-08-12T00:06:25.774Z,1.98
2022-08-12T00:09:11.421Z,1.60
2022-08-12T00:11:56.813Z,1.75
2022-08-12T00:14:42.401Z,1.45
2022-08-12T00:17:27.684Z,2.15
2022-08-12T00:20:13.255Z,2.00
2022-08-12T00:22:59.750Z,2.00
2022-08-12T00:26:22.542Z,1.65
2022-08-12T00:29:09.349Z,1.77
2022-08-12T00:31:54.523Z,1.73
2022-08-12T00:34:39.825Z,2.30
2022-08-12T00:37:25.679Z,2.15
2022-08-12T00:40:14.102Z,1.90
2022-08-12T00:42:42.278Z,2.03
2022-08-12T00:45:10.194Z,2.42
2022-08-12T00:47:38.581Z,1.85
2022-08-12T00:50:06.945Z,1.77
2022-08-12T00:52:35.591Z,2.08
2022-08-12T00:55:04.378Z,2.00
2022-08-12T00:57:37.399Z,1.85
2022-08-12T01:00:14.414Z,1.95
2022-08-12T01:02:46.700Z,1.90
2022-08-12T01:05:39.844Z,2.00
2022-08-12T01:08:26.482Z,1.92
2022-08-12T01:11:13.739Z,1.92
2022-08-12T01:13:46.161Z,1.83
2022-08-12T01:16:16.762Z,2.33
2022-08-12T01:18:45.211Z,2.10
2022-08-12T01:21:27.009Z,1.83
2022-08-12T01:24:30.117Z,2.03
2022-08-12T01:26:59.785Z,1.98
2022-08-12T01:29:33.055Z,1.73
2022-08-12T01:32:05.479Z,1.73
2022-08-12T01:34:37.412Z,2.10
2022-08-12T01:37:07.678Z,1.92
2022-08-12T01:40:33.932Z,2.25
2022-08-12T01:42:32.282Z,1.95
2022-08-12T01:45:00.440Z,2.47
2022-08-12T01:47:54.770Z,2.03
2022-08-12T01:50:36.741Z,2.33
2022-08-12T01:55:37.162Z,2.00
2022-08-12T01:58:21.812Z,2.20
2022-08-12T02:00:59.015Z,2.47
2022-08-12T02:04:22.154Z,2.80
2022-08-12T02:07:20.143Z,2.28
2022-08-12T02:10:11.320Z,2.28
2022-08-12T02:13:09.882Z,2.10
2022-08-12T02:15:51.720Z,2.30
2022-08-12T02:18:26.331Z,2.22
2022-08-12T02:21:07.289Z,2.17
2022-08-12T02:23:36.722Z,2.10
2022-08-12T02:26:09.307Z,1.83
2022-08-12T02:28:37.841Z,1.70
2022-08-12T02:31:07.019Z,1.92
2022-08-12T02:33:34.586Z,2.25
2022-08-12T02:36:02.551Z,2.33
2022-08-12T02:38:31.091Z,1.98
2022-08-12T02:41:04.451Z,2.22
2022-08-12T02:43:37.989Z,1.92
2022-08-12T02:46:14.757Z,2.03
2022-08-12T02:49:14.721Z,2.10
2022-08-12T02:51:45.093Z,2.15
2022-08-12T02:54:13.041Z,2.05
2022-08-12T02:56:41.601Z,1.90
2022-08-12T02:59:10.583Z,1.95
2022-08-12T03:01:47.821Z,2.45
2022-08-12T03:04:22.067Z,2.45
2022-08-12T03:07:04.707Z,1.88
2022-08-12T03:09:56.120Z,2.13
2022-08-12T03:12:24.667Z,2.00
2022-08-12T03:14:53.638Z,2.30
2022-08-12T03:17:30.237Z,2.35
2022-08-12T03:20:10.462Z,2.40
2022-08-12T03:22:42.336Z,2.33
2022-08-12T03:25:26.503Z,2.53
2022-08-12T03:27:56.365Z,2.33
2022-08-12T03:30:27.033Z,2.15
2022-08-12T03:32:55.491Z,2.25
2022-08-12T03:35:41.597Z,2.05
2022-08-12T03:38:12.232Z,2.40
2022-08-12T03:41:35.509Z,2.60
2022-08-12T03:44:49.392Z,2.50
2022-08-12T03:47:49.556Z,2.42
2022-08-12T03:50:36.005Z,2.70
2022-08-12T03:53:24.792Z,2.35
2022-08-12T03:56:10.654Z,2.83
2022-08-12T03:58:56.726Z,2.22
2022-08-12T04:01:25.440Z,2.70
2022-08-12T04:03:52.607Z,2.67
2022-08-12T04:06:34.917Z,3.03
2022-08-12T04:09:14.718Z,2.72
2022-08-12T04:12:02.495Z,2.40
2022-08-12T04:14:29.216Z,2.90
2022-08-12T04:16:57.254Z,3.00
2022-08-12T04:19:25.123Z,2.72
2022-08-12T04:22:02.082Z,3.13
2022-08-12T04:24:34.787Z,3.30
2022-08-12T04:27:05.423Z,2.72
2022-08-12T04:30:29.786Z,3.05
2022-08-12T04:32:19.226Z,2.85
2022-08-12T04:34:46.222Z,3.30
2022-08-12T04:37:13.574Z,2.65
2022-08-12T04:39:40.763Z,2.90
2022-08-12T04:42:07.784Z,3.53
2022-08-12T04:44:34.542Z,3.53
2022-08-12T04:47:01.654Z,3.25
2022-08-12T04:49:30.057Z,3.00
2022-08-12T04:51:58.906Z,2.97
2022-08-12T04:54:27.012Z,4.00
2022-08-12T04:57:03.197Z,3.25
2022-08-12T04:59:43.654Z,3.03
2022-08-12T05:02:17.220Z,3.40
2022-08-12T05:04:51.589Z,3.28
2022-08-12T05:07:19.306Z,3.03
2022-08-12T05:09:59.949Z,2.83
2022-08-12T05:12:37.491Z,3.55
2022-08-12T05:15:19.734Z,2.85
2022-08-12T05:17:53.213Z,2.85
2022-08-12T05:20:21.473Z,2.92
2022-08-12T05:22:49.987Z,3.17
2022-08-12T05:25:23.651Z,3.22
2022-08-12T05:27:58.162Z,2.38
2022-08-12T05:30:26.382Z,2.83
2022-08-12T05:32:55.493Z,2.65
2022-08-12T05:35:22.681Z,2.60
2022-08-12T05:38:16.596Z,2.97
2022-08-12T05:40:43.309Z,3.28
2022-08-12T05:43:10.025Z,3.10
2022-08-12T05:45:39.342Z,2.72
2022-08-12T05:48:09.591Z,3.03
2022-08-12T05:50:36.343Z,2.58
2022-08-12T05:53:03.952Z,2.40
2022-08-12T05:55:31.744Z,2.53
2022-08-12T05:57:59.102Z,2.25
2022-08-12T06:00:26.452Z,2.67
2022-08-12T06:03:02.579Z,2.13
2022-08-12T06:05:54.484Z,2.42
2022-08-12T06:08:24.450Z,2.13
2022-08-12T06:10:51.329Z,2.45
2022-08-12T06:13:28.023Z,2.20
2022-08-12T06:16:07.300Z,2.13
2022-08-12T06:18:34.392Z,2.08
2022-08-12T06:21:01.838Z,2.33
2022-08-12T06:23:29.597Z,2.45
2022-08-12T06:25:56.784Z,2.60
2022-08-12T06:28:24.034Z,2.50
2022-08-12T06:31:22.132Z,3.03
2022-08-12T06:34:00.577Z,2.50
2022-08-12T06:36:29.546Z,2.95
2022-08-12T06:38:57.123Z,2.40
2022-08-12T06:42:30.961Z,2.78
2022-08-12T06:44:29.303Z,2.10
2022-08-12T06:46:56.832Z,2.35
2022-08-12T06:49:25.433Z,2.10
2022-08-12T06:51:56.833Z,2.28
2022-08-12T06:54:31.162Z,2.20
2022-08-12T06:57:05.369Z,1.85
2022-08-12T06:59:46.728Z,2.05
2022-08-12T07:02:13.656Z,2.65
2022-08-12T07:04:40.603Z,2.80
2022-08-12T07:07:10.891Z,1.85
2022-08-12T07:10:05.058Z,1.85
2022-08-12T07:12:28.303Z,1.95
2022-08-12T07:14:57.313Z,2.25
2022-08-12T07:17:24.281Z,1.65
2022-08-12T07:19:52.014Z,1.55
2022-08-12T07:22:19.099Z,1.90
2022-08-12T07:25:05.913Z,1.75
2022-08-12T07:27:40.529Z,1.55
2022-08-12T07:30:08.130Z,2.10
2022-08-12T07:32:34.813Z,1.60
2022-08-12T07:35:02.203Z,1.60
2022-08-12T07:37:29.184Z,1.55
2022-08-12T07:40:00.529Z,1.13
2022-08-12T07:42:29.322Z,1.85
2022-08-12T07:44:58.550Z,1.40
2022-08-12T07:47:26.856Z,1.50
2022-08-12T07:50:05.081Z,1.30
2022-08-12T07:52:34.802Z,1.50
2022-08-12T07:55:02.478Z,1.50
2022-08-12T07:57:29.261Z,1.73
2022-08-12T07:59:56.252Z,1.38
2022-08-12T08:02:26.878Z,1.30
2022-08-12T08:04:57.310Z,1.77
2022-08-12T08:07:25.771Z,1.90
2022-08-12T08:09:58.464Z,1.73
2022-08-12T08:12:45.934Z,1.33
2022-08-12T08:15:14.875Z,1.80
2022-08-12T08:17:52.088Z,1.73
2022-08-12T08:20:31.632Z,1.20
2022-08-12T08:23:00.116Z,1.88
2022-08-12T08:25:35.810Z,1.13
2022-08-12T08:28:18.804Z,1.30
2022-08-12T08:30:47.779Z,1.42
2022-08-12T08:33:22.790Z,1.30
2022-08-12T08:36:06.671Z,1.30
2022-08-12T08:38:53.235Z,1.25
2022-08-12T08:42:17.225Z,1.30
2022-08-12T08:44:32.856Z,1.40
2022-08-12T08:47:01.139Z,1.30
2022-08-12T08:49:27.963Z,1.45
2022-08-12T08:51:54.717Z,1.23
2022-08-12T08:54:21.448Z,0.95
2022-08-12T08:56:50.011Z,1.05
2022-08-12T08:59:20.229Z,1.17
2022-08-12T09:01:47.814Z,1.00
2022-08-12T09:05:10.074Z,0.98
2022-08-12T09:10:02.584Z,1.00
2022-08-12T09:12:54.227Z,1.00
2022-08-12T09:15:21.794Z,0.93
2022-08-12T09:17:55.639Z,0.82
2022-08-12T09:20:32.346Z,0.98
2022-08-12T09:23:01.200Z,0.88
2022-08-12T09:25:35.540Z,1.05
2022-08-12T09:28:18.459Z,1.25
2022-08-12T09:30:53.907Z,1.20
2022-08-12T09:34:26.657Z,2.45
2022-08-12T09:36:31.283Z,0.95
2022-08-12T09:40:05.845Z,1.00
2022-08-12T09:42:54.248Z,1.02
2022-08-12T09:46:05.325Z,0.90
2022-08-12T09:48:10.168Z,0.90
2022-08-12T09:50:52.055Z,1.10
2022-08-12T09:53:36.409Z,0.95
2022-08-12T09:56:58.501Z,1.25
2022-08-12T09:59:01.939Z,0.93
2022-08-12T10:01:35.759Z,1.00
2022-08-12T10:04:19.662Z,0.90
2022-08-12T10:06:54.366Z,1.20
2022-08-12T10:09:23.191Z,1.10
2022-08-12T10:12:14.592Z,1.00
2022-08-12T10:14:57.945Z,1.25
2022-08-12T10:17:24.775Z,1.25
2022-08-12T10:19:52.911Z,1.23
2022-08-12T10:22:39.843Z,1.23
2022-08-12T10:26:10.051Z,1.13
2022-08-12T10:28:38.918Z,1.05
2022-08-12T10:31:06.562Z,1.08
2022-08-12T10:33:54.848Z,0.70
2022-08-12T10:36:40.463Z,1.70
2022-08-12T10:40:00.231Z,1.17
2022-08-12T10:42:46.040Z,0.90
2022-08-12T10:45:08.036Z,1.00
2022-08-12T10:48:07.117Z,1.00
2022-08-12T10:50:35.831Z,0.90
2022-08-12T10:53:15.620Z,1.08
2022-08-12T10:55:49.008Z,1.15
2022-08-12T10:58:28.219Z,0.88
2022-08-12T11:01:49.140Z,1.00
2022-08-12T11:04:31.294Z,1.38
2022-08-12T11:07:09.553Z,1.10
2022-08-12T11:09:54.339Z,1.25
2022-08-12T11:12:35.174Z,1.10
2022-08-12T11:14:56.700Z,0.80
2022-08-12T11:17:42.771Z,1.00
2022-08-12T11:20:15.179Z,1.05
2022-08-12T11:22:42.249Z,1.15
2022-08-12T11:25:24.886Z,0.98
2022-08-12T11:28:13.514Z,0.80
2022-08-12T11:30:40.831Z,0.90
2022-08-12T11:33:12.224Z,1.08
2022-08-12T11:35:52.319Z,0.85
2022-08-12T11:38:23.016Z,0.90
2022-08-12T11:40:49.791Z,1.05
2022-08-12T11:43:19.628Z,1.02
2022-08-12T11:45:47.692Z,0.90
2022-08-12T11:48:20.324Z,1.13
2022-08-12T11:50:54.514Z,1.00
2022-08-12T11:53:58.341Z,0.88
2022-08-12T11:56:08.416Z,1.10
2022-08-12T12:01:39.015Z,0.90
2022-08-12T12:02:01.141Z,1.10
2022-08-12T12:04:11.970Z,0.82
2022-08-12T12:06:38.738Z,1.00
2022-08-12T12:09:08.087Z,0.90
2022-08-12T12:11:49.025Z,1.27
2022-08-12T12:14:17.873Z,1.10
2022-08-12T12:16:48.286Z,0.90
2022-08-12T12:19:17.726Z,1.05
2022-08-12T12:21:47.289Z,1.15
2022-08-12T12:24:21.852Z,1.05
2022-08-12T12:27:00.690Z,0.93
2022-08-12T12:30:18.249Z,1.10
2022-08-12T12:32:19.323Z,0.80
2022-08-12T12:35:13.918Z,1.15
2022-08-12T12:38:04.927Z,1.10
2022-08-12T12:40:35.698Z,0.85
2022-08-12T12:43:07.848Z,1.00
2022-08-12T12:45:36.203Z,0.80
2022-08-12T12:48:06.456Z,1.10
2022-08-12T12:50:45.199Z,0.93
2022-08-12T12:54:07.152Z,0.90
2022-08-12T12:56:13.703Z,0.70
2022-08-12T12:58:40.420Z,0.60
2022-08-12T13:01:26.900Z,0.90
2022-08-12T13:04:01.747Z,0.98
2022-08-12T13:06:30.937Z,0.73
2022-08-12T13:09:03.653Z,1.10
2022-08-12T13:11:41.536Z,1.00
2022-08-12T13:14:28.174Z,0.98
2022-08-12T13:17:00.993Z,0.90
2022-08-12T13:19:37.506Z,0.70
2022-08-12T13:22:20.345Z,1.05
2022-08-12T13:24:55.747Z,0.80
2022-08-12T13:27:36.544Z,1.00
2022-08-12T13:30:15.382Z,0.90
2022-08-12T13:32:56.742Z,0.90
2022-08-12T13:35:33.510Z,0.88
2022-08-12T13:38:26.703Z,0.77
2022-08-12T13:41:03.400Z,0.85
2022-08-12T13:43:40.325Z,0.82
2022-08-12T13:46:11.814Z,1.00
2022-08-12T13:51:12.833Z,0.70
2022-08-12T13:53:58.209Z,0.88
2022-08-12T13:56:29.927Z,0.85
2022-08-12T13:59:05.514Z,0.73
2022-08-12T14:01:35.707Z,0.90
2022-08-12T14:04:11.539Z,0.95
2022-08-12T14:06:40.100Z,0.98
2022-08-12T14:09:15.248Z,0.90
2022-08-12T14:11:51.275Z,0.93
2022-08-12T14:14:26.653Z,1.42
2022-08-12T14:16:53.712Z,1.00
2022-08-12T14:19:24.384Z,0.90
2022-08-12T14:22:01.033Z,0.70
2022-08-12T14:24:35.431Z,0.98
2022-08-12T14:27:03.724Z,0.73
2022-08-12T14:29:59.059Z,0.98
2022-08-12T14:32:23.844Z,0.82
2022-08-12T14:34:51.567Z,0.80
2022-08-12T14:37:57.661Z,0.90
2022-08-12T14:40:06.909Z,0.70
2022-08-12T14:42:33.629Z,0.93
2022-08-12T14:45:02.167Z,0.73
2022-08-12T14:47:35.519Z,1.13
2022-08-12T14:50:41.401Z,0.80
2022-08-12T14:58:31.832Z,1.00
2022-08-12T15:01:21.207Z,1.00
2022-08-12T15:03:57.905Z,0.90
2022-08-12T15:06:44.044Z,0.88
2022-08-12T15:09:15.980Z,0.70
2022-08-12T15:11:54.344Z,0.98
2022-08-12T15:14:22.252Z,0.93
2022-08-12T15:16:50.039Z,0.90
2022-08-12T15:20:12.468Z,0.80
2022-08-12T15:22:37.556Z,0.90
2022-08-12T15:24:50.846Z,1.10
2022-08-12T15:27:22.318Z,0.80
2022-08-12T15:29:58.712Z,1.00
2022-08-12T15:32:32.100Z,0.93
2022-08-12T15:35:02.957Z,0.85
2022-08-12T15:38:08.306Z,0.90
2022-08-12T15:40:30.225Z,1.05
2022-08-12T15:45:32.122Z,0.90
2022-08-12T15:48:16.105Z,0.90
2022-08-12T15:50:45.618Z,1.02
2022-08-12T15:53:15.365Z,0.90
2022-08-12T15:55:46.227Z,0.80
2022-08-12T15:58:16.961Z,0.93
2022-08-12T16:00:43.990Z,0.90
2022-08-12T16:03:13.643Z,0.82
2022-08-12T16:06:11.844Z,0.88
2022-08-12T16:08:35.686Z,1.05
2022-08-12T16:11:07.398Z,0.68
2022-08-12T16:13:44.115Z,0.82
2022-08-12T16:16:22.822Z,0.82
2022-08-12T16:18:52.647Z,0.90
2022-08-12T16:21:50.297Z,0.82
2022-08-12T16:24:11.603Z,0.98
2022-08-12T16:26:40.717Z,0.90
2022-08-12T16:29:19.802Z,0.40
2022-08-12T16:31:52.448Z,0.50
2022-08-12T16:34:41.979Z,0.82
2022-08-12T16:37:13.405Z,0.80
2022-08-12T16:40:00.391Z,0.82
2022-08-12T16:42:30.733Z,0.70
2022-08-12T16:45:02.174Z,0.50
2022-08-12T16:47:31.271Z,0.50
2022-08-12T16:50:19.385Z,0.63
2022-08-12T16:52:50.180Z,0.60
2022-08-12T16:55:18.794Z,0.50
2022-08-12T16:57:48.558Z,0.50
2022-08-12T17:00:18.139Z,0.75
2022-08-12T17:02:57.177Z,0.63
2022-08-12T17:05:31.338Z,0.70
2022-08-12T17:10:52.781Z,0.65
2022-08-12T17:13:26.034Z,0.47
2022-08-12T17:16:05.265Z,0.75
2022-08-12T17:18:57.728Z,0.50
2022-08-12T17:21:41.178Z,0.50
2022-08-12T17:24:19.571Z,0.60
2022-08-12T17:28:00.492Z,0.50
2022-08-12T17:52:33.515Z,0.33
2022-08-12T17:55:44.667Z,0.60
2022-08-12T18:01:28.808Z,0.43
2022-08-12T18:04:20.308Z,0.43
2022-08-12T18:06:52.880Z,0.52
2022-08-12T18:09:21.812Z,0.40
2022-08-12T18:12:12.169Z,0.47
2022-08-12T18:14:41.290Z,0.50
2022-08-12T18:17:16.214Z,0.57
2022-08-12T18:20:05.284Z,0.45
2022-08-12T18:22:31.926Z,0.50
2022-08-12T18:25:05.106Z,0.50
2022-08-12T18:27:44.107Z,0.85
2022-08-12T18:30:13.259Z,0.40
2022-08-12T18:32:58.484Z,0.65
2022-08-12T18:35:29.914Z,0.50
2022-08-12T18:38:16.707Z,0.57
2022-08-12T18:41:04.472Z,0.70
2022-08-12T18:43:37.083Z,0.43
2022-08-12T18:46:30.003Z,0.70
2022-08-12T18:48:57.525Z,0.50
2022-08-12T18:51:55.236Z,0.50
2022-08-12T18:54:32.300Z,0.60
2022-08-12T19:00:00.011Z,0.70
2022-08-12T19:02:22.174Z,0.57
2022-08-12T19:04:53.416Z,0.50
2022-08-12T19:07:29.713Z,0.50
2022-08-12T19:10:13.648Z,0.93
2022-08-12T19:13:00.385Z,0.60
2022-08-12T19:15:29.787Z,0.75
2022-08-12T19:18:02.380Z,0.80
2022-08-12T19:20:31.531Z,1.10
2022-08-12T19:23:07.301Z,1.50
2022-08-12T19:26:00.673Z,2.38
2022-08-12T19:28:29.556Z,3.95
2022-08-12T19:31:17.544Z,7.90
2022-08-12T19:34:06.472Z,4.10
2022-08-12T19:36:32.460Z,3.60
2022-08-12T19:39:01.787Z,3.30
2022-08-12T19:41:34.430Z,2.58
2022-08-12T19:44:18.575Z,2.78
2022-08-12T19:46:52.749Z,2.50
2022-08-12T19:49:20.428Z,1.98
2022-08-12T19:51:52.019Z,1.60
2022-08-12T19:54:23.118Z,1.13
2022-08-12T19:56:58.446Z,1.20
2022-08-12T19:59:43.138Z,1.20
2022-08-12T20:02:33.079Z,0.77
2022-08-12T20:05:25.492Z,0.65
2022-08-12T20:07:56.933Z,1.23
2022-08-12T20:10:35.155Z,0.80
2022-08-12T20:13:19.257Z,1.15
2022-08-12T20:15:59.656Z,0.60
2022-08-12T20:18:53.565Z,0.50
2022-08-12T20:21:16.126Z,0.80
2022-08-12T20:23:59.572Z,0.95
2022-08-12T20:26:28.121Z,0.77
2022-08-12T20:28:55.450Z,0.60
2022-08-12T20:31:22.159Z,0.73
2022-08-12T20:33:56.080Z,0.80
2022-08-12T20:36:41.501Z,0.90
2022-08-12T20:39:33.857Z,0.52
2022-08-12T20:42:02.306Z,0.80
2022-08-12T20:44:34.183Z,0.88
2022-08-12T20:47:18.524Z,0.80
2022-08-12T20:49:55.886Z,0.60
2022-08-12T20:52:30.070Z,0.70
2022-08-12T20:54:57.715Z,0.80
2022-08-12T20:57:24.769Z,0.70
2022-08-12T21:00:16.067Z,0.73
2022-08-12T21:02:47.054Z,0.70
2022-08-12T21:06:16.737Z,0.80
2022-08-12T21:08:43.733Z,0.50
2022-08-12T21:11:13.799Z,0.70
2022-08-12T21:13:42.283Z,0.55
2022-08-12T21:16:09.867Z,0.90
2022-08-12T21:18:37.704Z,1.00
2022-08-12T21:21:06.493Z,0.80
2022-08-12T21:23:37.037Z,0.82
2022-08-12T21:26:06.021Z,0.70
2022-08-12T21:28:56.796Z,1.25
2022-08-12T21:32:36.797Z,0.75
2022-08-12T21:34:29.142Z,0.60
2022-08-12T21:37:12.885Z,0.75
2022-08-12T21:39:51.963Z,0.77
2022-08-12T21:42:20.907Z,0.70
2022-08-12T21:45:45.777Z,0.70
2022-08-12T21:47:41.353Z,0.77
2022-08-12T21:50:08.935Z,0.60
2022-08-12T21:52:40.470Z,0.82
2022-08-12T21:55:17.817Z,1.02
2022-08-12T21:57:53.227Z,0.70
2022-08-12T22:00:32.895Z,0.68
2022-08-12T22:04:03.771Z,0.70
2022-08-12T22:06:31.093Z,0.80
2022-08-12T22:09:16.882Z,0.75
2022-08-12T22:11:56.934Z,0.70
2022-08-12T22:14:29.680Z,1.05
2022-08-12T22:16:57.869Z,0.60
2022-08-12T22:19:24.846Z,0.60
2022-08-12T22:21:55.849Z,0.80
2022-08-12T22:24:26.638Z,1.23
2022-08-12T22:27:18.057Z,0.57
2022-08-12T22:30:07.047Z,0.43
2022-08-12T22:32:34.256Z,0.90
2022-08-12T22:35:22.311Z,1.00
2022-08-12T22:37:53.685Z,0.68
2022-08-12T22:43:09.229Z,0.80
2022-08-12T22:46:01.179Z,0.80
2022-08-12T22:48:27.965Z,0.80
2022-08-12T22:50:59.193Z,0.80
2022-08-12T22:53:36.217Z,0.70
2022-08-12T22:56:06.989Z,0.85
2022-08-12T22:58:40.555Z,0.68
2022-08-12T23:01:10.802Z,0.80
2022-08-12T23:03:49.156Z,0.68
2022-08-12T23:06:21.156Z,0.52
2022-08-12T23:08:48.313Z,0.85
2022-08-12T23:11:16.035Z,0.90
2022-08-12T23:13:55.132Z,0.85
2022-08-12T23:16:30.936Z,0.73
2022-08-12T23:19:09.952Z,0.60
2022-08-12T23:22:05.265Z,0.80
2022-08-12T23:24:55.696Z,1.08
2022-08-12T23:27:51.545Z,0.70
2022-08-12T23:30:25.173Z,1.00
2022-08-12T23:33:00.603Z,0.95
2022-08-12T23:35:45.570Z,0.75
2022-08-12T23:38:30.810Z,1.15
2022-08-12T23:41:01.338Z,0.85
2022-08-12T23:43:38.949Z,0.80
2022-08-12T23:46:09.111Z,0.75
2022-08-12T23:48:37.573Z,0.80
2022-08-12T23:51:22.726Z,0.80
2022-08-12T23:53:54.699Z,0.80
2022-08-12T23:56:23.678Z,1.00
2022-08-12T23:58:52.786Z,0.90
